createdAt,value
2018-01-25T00:00:22.980Z,6.52
2018-01-25T00:01:22.978Z,6.54
2018-01-25T00:02:22.972Z,6.60
2018-01-25T00:03:22.967Z,6.62
2018-01-25T00:04:22.963Z,6.68
2018-01-25T00:05:22.959Z,6.75
2018-01-25T00:06:22.958Z,6.85
2018-01-25T00:07:22.952Z,6.87
2018-01-25T00:08:22.948Z,7.05
2018-01-25T00:09:22.945Z,7.22
2018-01-25T00:10:22.940Z,7.25
2018-01-25T00:11:22.936Z,7.33
2018-01-25T00:12:22.933Z,7.46
2018-01-25T00:13:22.929Z,7.51
2018-01-25T00:14:22.925Z,7.56
2018-01-25T00:15:22.921Z,7.59
2018-01-25T00:16:22.917Z,7.74
2018-01-25T00:17:22.914Z,7.70
2018-01-25T00:18:22.911Z,7.75
2018-01-25T00:19:22.907Z,7.72
2018-01-25T00:20:22.904Z,7.80
2018-01-25T00:21:22.903Z,7.83
2018-01-25T00:22:22.895Z,7.80
2018-01-25T00:23:22.892Z,7.80
2018-01-25T00:24:22.889Z,7.80
2018-01-25T00:25:22.885Z,7.85
2018-01-25T00:26:22.882Z,7.93
2018-01-25T00:27:22.877Z,7.87
2018-01-25T00:28:22.874Z,7.90
2018-01-25T00:29:22.870Z,7.90
2018-01-25T00:30:22.866Z,7.83
2018-01-25T00:31:22.863Z,7.78
2018-01-25T00:32:22.859Z,7.74
2018-01-25T00:33:22.856Z,7.66
2018-01-25T00:34:22.851Z,7.67
2018-01-25T00:35:22.848Z,7.50
2018-01-25T00:36:22.844Z,7.48
2018-01-25T00:37:22.842Z,7.40
2018-01-25T00:38:22.838Z,7.33
2018-01-25T00:39:22.835Z,7.32
2018-01-25T00:40:22.831Z,7.28
2018-01-25T00:41:22.825Z,7.25
2018-01-25T00:42:22.823Z,7.25
2018-01-25T00:43:22.819Z,7.23
2018-01-25T00:44:22.815Z,7.19
2018-01-25T00:45:22.813Z,7.19
2018-01-25T00:46:22.807Z,7.22
2018-01-25T00:47:22.804Z,7.21
2018-01-25T00:48:22.800Z,7.28
2018-01-25T00:49:22.797Z,7.36
2018-01-25T00:50:22.791Z,7.33
2018-01-25T00:51:22.789Z,7.40
2018-01-25T00:52:22.789Z,7.46
2018-01-25T00:53:22.781Z,7.51
2018-01-25T00:54:22.776Z,7.55
2018-01-25T00:55:22.772Z,7.67
2018-01-25T00:56:22.769Z,7.56
2018-01-25T00:57:22.765Z,7.48
2018-01-25T00:58:22.762Z,7.56
2018-01-25T00:59:22.757Z,7.58
2018-01-25T01:00:22.753Z,7.56
2018-01-25T01:01:22.750Z,7.69
2018-01-25T01:02:22.745Z,7.69
2018-01-25T01:03:22.741Z,7.62
2018-01-25T01:04:22.738Z,7.66
2018-01-25T01:05:22.733Z,7.69
2018-01-25T01:06:22.730Z,7.64
2018-01-25T01:07:22.726Z,7.61
2018-01-25T01:08:22.722Z,7.53
2018-01-25T01:09:22.718Z,7.55
2018-01-25T01:10:22.713Z,7.47
2018-01-25T01:11:22.710Z,7.51
2018-01-25T01:12:22.706Z,7.47
2018-01-25T01:13:22.702Z,7.47
2018-01-25T01:14:22.697Z,7.47
2018-01-25T01:15:22.696Z,7.46
2018-01-25T01:16:22.693Z,7.44
2018-01-25T01:17:22.687Z,7.44
2018-01-25T01:18:22.682Z,7.46
2018-01-25T01:19:22.678Z,7.32
2018-01-25T01:20:22.675Z,7.40
2018-01-25T01:21:22.670Z,7.41
2018-01-25T01:22:22.666Z,7.43
2018-01-25T01:23:22.662Z,7.31
2018-01-25T01:24:22.659Z,7.25
2018-01-25T01:25:22.654Z,7.05
2018-01-25T01:26:22.649Z,7.01
2018-01-25T01:27:22.647Z,6.97
2018-01-25T01:28:22.641Z,6.87
2018-01-25T01:29:22.639Z,6.82
2018-01-25T01:30:22.635Z,6.71
2018-01-25T01:31:22.631Z,6.56
2018-01-25T01:32:22.627Z,6.60
2018-01-25T01:33:22.623Z,6.57
2018-01-25T01:34:22.618Z,6.71
2018-01-25T01:35:22.614Z,6.72
2018-01-25T01:36:22.611Z,6.74
2018-01-25T01:37:22.610Z,6.75
2018-01-25T01:38:22.601Z,6.72
2018-01-25T01:39:22.598Z,6.85
2018-01-25T01:40:22.594Z,6.70
2018-01-25T01:41:22.590Z,6.72
2018-01-25T01:42:22.586Z,6.68
2018-01-25T01:43:22.580Z,6.68
2018-01-25T01:44:22.576Z,6.65
2018-01-25T01:45:22.573Z,6.56
2018-01-25T01:46:22.568Z,6.70
2018-01-25T01:47:22.565Z,6.59
2018-01-25T01:48:22.561Z,6.57
2018-01-25T01:49:22.558Z,6.68
2018-01-25T01:50:22.551Z,6.54
2018-01-25T01:51:22.548Z,6.67
2018-01-25T01:52:22.544Z,6.68
2018-01-25T01:53:22.539Z,6.72
2018-01-25T01:54:22.534Z,6.71
2018-01-25T01:55:22.531Z,6.77
2018-01-25T01:56:22.527Z,6.80
2018-01-25T01:57:22.523Z,6.72
2018-01-25T01:58:22.517Z,6.70
2018-01-25T01:59:22.514Z,6.78
2018-01-25T02:00:22.509Z,6.56
2018-01-25T02:01:22.505Z,6.64
2018-01-25T02:02:22.500Z,6.65
2018-01-25T02:03:22.500Z,6.54
2018-01-25T02:04:22.492Z,6.50
2018-01-25T02:05:22.489Z,6.39
2018-01-25T02:06:22.485Z,6.49
2018-01-25T02:07:22.480Z,6.39
2018-01-25T02:08:22.476Z,6.39
2018-01-25T02:09:22.472Z,6.39
2018-01-25T02:10:22.466Z,6.32
2018-01-25T02:11:22.462Z,6.39
2018-01-25T02:12:22.458Z,6.38
2018-01-25T02:13:22.455Z,6.38
2018-01-25T02:14:22.448Z,6.46
2018-01-25T02:15:22.447Z,6.62
2018-01-25T02:16:22.442Z,6.65
2018-01-25T02:17:22.484Z,6.68
2018-01-25T02:18:22.432Z,6.72
2018-01-25T02:19:22.427Z,6.80
2018-01-25T02:20:22.426Z,6.82
2018-01-25T02:21:22.420Z,6.80
2018-01-25T02:22:22.416Z,6.87
2018-01-25T02:23:22.412Z,6.87
2018-01-25T02:24:22.408Z,6.82
2018-01-25T02:25:22.403Z,6.85
2018-01-25T02:26:22.398Z,6.72
2018-01-25T02:27:22.394Z,6.82
2018-01-25T02:28:22.390Z,6.90
2018-01-25T02:29:22.386Z,6.70
2018-01-25T02:30:22.382Z,6.74
2018-01-25T02:31:22.378Z,6.70
2018-01-25T02:32:22.375Z,6.72
2018-01-25T02:33:22.375Z,6.56
2018-01-25T02:34:22.366Z,6.59
2018-01-25T02:35:22.360Z,6.47
2018-01-25T02:36:22.358Z,6.46
2018-01-25T02:37:22.356Z,6.47
2018-01-25T02:38:22.348Z,6.57
2018-01-25T02:39:22.346Z,6.68
2018-01-25T02:40:22.340Z,6.72
2018-01-25T02:41:22.337Z,6.67
2018-01-25T02:42:22.332Z,6.78
2018-01-25T02:43:22.327Z,6.89
2018-01-25T02:44:22.322Z,6.82
2018-01-25T02:45:22.320Z,6.93
2018-01-25T02:46:22.314Z,6.83
2018-01-25T02:47:22.312Z,6.90
2018-01-25T02:48:22.306Z,6.96
2018-01-25T02:49:22.303Z,6.97
2018-01-25T02:50:22.298Z,7.04
2018-01-25T02:51:22.294Z,7.04
2018-01-25T02:52:22.290Z,7.18
2018-01-25T02:53:22.285Z,7.05
2018-01-25T02:54:22.280Z,7.04
2018-01-25T02:55:22.277Z,7.14
2018-01-25T02:56:22.273Z,7.19
2018-01-25T02:57:22.271Z,7.15
2018-01-25T02:58:22.265Z,7.05
2018-01-25T02:59:22.259Z,7.10
2018-01-25T03:00:22.256Z,7.13
2018-01-25T03:01:22.252Z,7.05
2018-01-25T03:02:22.248Z,7.14
2018-01-25T03:03:22.243Z,7.10
2018-01-25T03:04:22.239Z,7.05
2018-01-25T03:05:22.236Z,7.13
2018-01-25T03:06:22.232Z,7.07
2018-01-25T03:07:22.228Z,7.01
2018-01-25T03:08:22.223Z,6.92
2018-01-25T03:09:22.220Z,7.00
2018-01-25T03:10:22.213Z,6.87
2018-01-25T03:11:22.209Z,6.95
2018-01-25T03:12:22.207Z,6.89
2018-01-25T03:13:22.203Z,6.83
2018-01-25T03:14:22.199Z,6.70
2018-01-25T03:15:22.246Z,6.74
2018-01-25T03:16:22.189Z,6.59
2018-01-25T03:17:22.186Z,6.60
2018-01-25T03:18:22.181Z,6.60
2018-01-25T03:19:22.177Z,6.74
2018-01-25T03:20:22.173Z,6.71
2018-01-25T03:21:22.168Z,6.77
2018-01-25T03:22:22.165Z,6.80
2018-01-25T03:23:22.160Z,6.74
2018-01-25T03:24:22.155Z,6.67
2018-01-25T03:25:22.153Z,6.75
2018-01-25T03:26:22.147Z,6.77
2018-01-25T03:27:22.144Z,6.72
2018-01-25T03:28:22.140Z,6.72
2018-01-25T03:29:22.136Z,6.80
2018-01-25T03:30:22.131Z,6.78
2018-01-25T03:31:22.130Z,6.70
2018-01-25T03:32:22.123Z,6.70
2018-01-25T03:33:22.119Z,6.78
2018-01-25T03:34:22.114Z,6.75
2018-01-25T03:35:22.110Z,6.85
2018-01-25T03:36:22.106Z,6.75
2018-01-25T03:37:22.101Z,6.87
2018-01-25T03:38:22.102Z,6.86
2018-01-25T03:39:22.092Z,6.89
2018-01-25T03:40:22.089Z,6.72
2018-01-25T03:41:22.085Z,6.78
2018-01-25T03:42:22.080Z,6.82
2018-01-25T03:43:22.076Z,6.80
2018-01-25T03:44:22.071Z,6.67
2018-01-25T03:45:22.068Z,6.64
2018-01-25T03:46:22.068Z,6.72
2018-01-25T03:47:22.059Z,6.74
2018-01-25T03:48:22.054Z,6.64
2018-01-25T03:49:22.051Z,6.67
2018-01-25T03:50:22.045Z,6.60
2018-01-25T03:51:22.042Z,6.60
2018-01-25T03:52:22.037Z,6.59
2018-01-25T03:53:22.032Z,6.52
2018-01-25T03:54:22.028Z,6.64
2018-01-25T03:55:22.024Z,6.53
2018-01-25T03:56:22.020Z,6.54
2018-01-25T03:57:22.015Z,6.59
2018-01-25T03:58:22.011Z,6.60
2018-01-25T03:59:22.007Z,6.62
2018-01-25T04:00:22.001Z,6.71
2018-01-25T04:01:22.001Z,6.67
2018-01-25T04:02:21.993Z,6.71
2018-01-25T04:03:21.990Z,6.68
2018-01-25T04:04:21.988Z,6.64
2018-01-25T04:05:21.981Z,6.53
2018-01-25T04:06:21.976Z,6.65
2018-01-25T04:07:21.972Z,6.64
2018-01-25T04:08:21.967Z,6.71
2018-01-25T04:09:21.963Z,6.70
2018-01-25T04:10:21.959Z,6.72
2018-01-25T04:11:21.953Z,6.72
2018-01-25T04:12:21.950Z,6.70
2018-01-25T04:13:21.944Z,6.72
2018-01-25T04:14:21.940Z,6.72
2018-01-25T04:15:21.936Z,6.72
2018-01-25T04:16:21.931Z,6.72
2018-01-25T04:17:21.928Z,6.70
2018-01-25T04:18:21.923Z,6.68
2018-01-25T04:19:21.918Z,6.74
2018-01-25T04:20:21.917Z,6.67
2018-01-25T04:21:21.911Z,6.74
2018-01-25T04:22:21.905Z,6.72
2018-01-25T04:23:21.901Z,6.60
2018-01-25T04:24:21.898Z,6.60
2018-01-25T04:25:21.894Z,6.70
2018-01-25T04:26:21.888Z,6.74
2018-01-25T04:27:21.884Z,6.54
2018-01-25T04:28:21.881Z,6.75
2018-01-25T04:29:21.878Z,6.71
2018-01-25T04:30:21.870Z,6.74
2018-01-25T04:31:21.866Z,6.82
2018-01-25T04:32:21.863Z,6.75
2018-01-25T04:33:21.859Z,6.77
2018-01-25T04:34:21.853Z,6.78
2018-01-25T04:35:21.848Z,6.70
2018-01-25T04:36:21.847Z,6.71
2018-01-25T04:37:21.842Z,6.68
2018-01-25T04:38:21.836Z,6.71
2018-01-25T04:39:21.831Z,6.72
2018-01-25T04:40:21.831Z,6.70
2018-01-25T04:41:21.824Z,6.59
2018-01-25T04:42:21.818Z,6.60
2018-01-25T04:43:21.815Z,6.59
2018-01-25T04:44:21.811Z,6.59
2018-01-25T04:45:21.809Z,6.56
2018-01-25T04:46:21.801Z,6.46
2018-01-25T04:47:21.798Z,6.43
2018-01-25T04:48:21.793Z,6.47
2018-01-25T04:49:21.788Z,6.35
2018-01-25T04:50:21.783Z,6.34
2018-01-25T04:51:21.780Z,6.34
2018-01-25T04:52:21.775Z,6.32
2018-01-25T04:53:21.772Z,6.32
2018-01-25T04:54:21.765Z,6.29
2018-01-25T04:55:21.763Z,6.20
2018-01-25T04:56:21.758Z,6.32
2018-01-25T04:57:21.754Z,6.25
2018-01-25T04:58:21.750Z,6.25
2018-01-25T04:59:21.743Z,6.16
2018-01-25T05:00:21.739Z,6.29
2018-01-25T05:01:21.736Z,6.31
2018-01-25T05:02:21.730Z,6.35
2018-01-25T05:03:21.726Z,6.35
2018-01-25T05:04:21.722Z,6.25
2018-01-25T05:05:21.718Z,6.29
2018-01-25T05:06:21.711Z,6.34
2018-01-25T05:07:21.707Z,6.34
2018-01-25T05:08:21.709Z,6.36
2018-01-25T05:09:21.698Z,6.36
2018-01-25T05:10:21.693Z,6.31
2018-01-25T05:11:21.688Z,6.36
2018-01-25T05:12:21.684Z,6.38
2018-01-25T05:13:21.680Z,6.43
2018-01-25T05:14:21.674Z,6.49
2018-01-25T05:15:21.671Z,6.47
2018-01-25T05:16:21.666Z,6.57
2018-01-25T05:17:21.661Z,6.65
2018-01-25T05:18:21.655Z,6.60
2018-01-25T05:19:21.653Z,6.57
2018-01-25T05:20:21.647Z,6.64
2018-01-25T05:21:21.641Z,6.70
2018-01-25T05:22:21.637Z,6.70
2018-01-25T05:23:21.632Z,6.80
2018-01-25T05:24:21.628Z,6.72
2018-01-25T05:25:21.626Z,6.82
2018-01-25T05:26:21.619Z,6.82
2018-01-25T05:27:21.614Z,6.82
2018-01-25T05:28:21.611Z,6.86
2018-01-25T05:29:21.607Z,6.78
2018-01-25T05:30:21.601Z,6.68
2018-01-25T05:31:21.596Z,6.78
2018-01-25T05:32:21.592Z,6.80
2018-01-25T05:33:21.589Z,6.75
2018-01-25T05:34:21.584Z,6.80
2018-01-25T05:35:21.579Z,6.83
2018-01-25T05:36:21.576Z,6.77
2018-01-25T05:37:21.570Z,6.85
2018-01-25T05:38:21.566Z,6.85
2018-01-25T05:39:21.562Z,6.77
2018-01-25T05:40:21.557Z,6.86
2018-01-25T05:41:21.553Z,6.85
2018-01-25T05:42:21.548Z,6.77
2018-01-25T05:43:21.584Z,6.83
2018-01-25T05:44:21.541Z,6.77
2018-01-25T05:45:21.536Z,6.72
2018-01-25T05:46:21.532Z,6.75
2018-01-25T05:47:21.526Z,6.72
2018-01-25T05:48:21.522Z,6.64
2018-01-25T05:49:21.518Z,6.60
2018-01-25T05:50:21.514Z,6.64
2018-01-25T05:51:21.509Z,6.64
2018-01-25T05:52:21.505Z,6.47
2018-01-25T05:53:21.500Z,6.56
2018-01-25T05:54:21.496Z,6.54
2018-01-25T05:55:21.492Z,6.49
2018-01-25T05:56:21.490Z,6.54
2018-01-25T05:57:21.484Z,6.59
2018-01-25T05:58:21.479Z,6.59
2018-01-25T05:59:21.474Z,6.56
2018-01-25T06:00:21.469Z,6.59
2018-01-25T06:01:21.467Z,6.60
2018-01-25T06:02:21.459Z,6.53
2018-01-25T06:03:21.457Z,6.54
2018-01-25T06:04:21.452Z,6.54
2018-01-25T06:05:21.448Z,6.60
2018-01-25T06:06:21.442Z,6.56
2018-01-25T06:07:21.440Z,6.49
2018-01-25T06:08:21.434Z,6.47
2018-01-25T06:09:21.430Z,6.54
2018-01-25T06:10:21.424Z,6.49
2018-01-25T06:11:21.422Z,6.47
2018-01-25T06:12:21.417Z,6.47
2018-01-25T06:13:21.415Z,6.39
2018-01-25T06:14:21.407Z,6.46
2018-01-25T06:15:21.404Z,6.44
2018-01-25T06:16:21.400Z,6.44
2018-01-25T06:17:21.401Z,6.34
2018-01-25T06:18:21.390Z,6.36
2018-01-25T06:19:21.388Z,6.43
2018-01-25T06:20:21.380Z,6.31
2018-01-25T06:21:21.377Z,6.29
2018-01-25T06:22:21.371Z,6.32
2018-01-25T06:23:21.366Z,6.34
2018-01-25T06:24:21.362Z,6.35
2018-01-25T06:25:21.360Z,6.36
2018-01-25T06:26:21.353Z,6.34
2018-01-25T06:27:21.391Z,6.36
2018-01-25T06:28:21.345Z,6.39
2018-01-25T06:29:21.339Z,6.41
2018-01-25T06:30:21.336Z,6.38
2018-01-25T06:31:21.330Z,6.36
2018-01-25T06:32:21.325Z,6.35
2018-01-25T06:33:21.327Z,6.36
2018-01-25T06:34:21.316Z,6.35
2018-01-25T06:35:21.313Z,6.34
2018-01-25T06:36:21.308Z,6.22
2018-01-25T06:37:21.304Z,6.20
2018-01-25T06:38:21.298Z,6.19
2018-01-25T06:39:21.293Z,6.17
2018-01-25T06:40:21.289Z,6.19
2018-01-25T06:41:21.286Z,6.22
2018-01-25T06:42:21.280Z,6.10
2018-01-25T06:43:21.274Z,6.09
2018-01-25T06:44:21.270Z,6.02
2018-01-25T06:45:21.267Z,6.02
2018-01-25T06:46:21.262Z,6.02
2018-01-25T06:47:21.257Z,5.92
2018-01-25T06:48:21.253Z,5.90
2018-01-25T06:49:21.248Z,5.91
2018-01-25T06:50:21.243Z,6.05
2018-01-25T06:51:21.240Z,6.06
2018-01-25T06:52:21.234Z,6.06
2018-01-25T06:53:21.229Z,6.07
2018-01-25T06:54:21.224Z,6.13
2018-01-25T06:55:21.219Z,6.13
2018-01-25T06:56:21.215Z,6.19
2018-01-25T06:57:21.213Z,6.07
2018-01-25T06:58:21.241Z,6.19
2018-01-25T06:59:21.199Z,6.12
2018-01-25T07:00:21.196Z,6.22
2018-01-25T07:01:21.191Z,6.25
2018-01-25T07:02:21.186Z,6.22
2018-01-25T07:03:21.181Z,6.17
2018-01-25T07:04:21.177Z,6.13
2018-01-25T07:05:21.172Z,6.20
2018-01-25T07:06:21.165Z,6.07
2018-01-25T07:07:21.162Z,6.10
2018-01-25T07:08:21.158Z,6.16
2018-01-25T07:09:21.154Z,6.25
2018-01-25T07:10:21.148Z,6.16
2018-01-25T07:11:21.144Z,6.09
2018-01-25T07:12:21.140Z,6.15
2018-01-25T07:13:21.135Z,6.17
2018-01-25T07:14:21.128Z,6.22
2018-01-25T07:15:21.126Z,6.17
2018-01-25T07:16:21.120Z,6.19
2018-01-25T07:17:21.115Z,6.17
2018-01-25T07:18:21.111Z,6.22
2018-01-25T07:19:21.107Z,6.28
2018-01-25T07:20:21.103Z,6.31
2018-01-25T07:21:21.098Z,6.38
2018-01-25T07:22:21.094Z,6.47
2018-01-25T07:23:21.090Z,6.46
2018-01-25T07:24:21.085Z,6.44
2018-01-25T07:25:21.080Z,6.47
2018-01-25T07:26:21.077Z,6.43
2018-01-25T07:27:21.072Z,6.41
2018-01-25T07:28:21.066Z,6.49
2018-01-25T07:29:21.065Z,6.49
2018-01-25T07:30:21.059Z,6.49
2018-01-25T07:31:21.056Z,6.50
2018-01-25T07:32:21.052Z,6.60
2018-01-25T07:33:21.046Z,6.72
2018-01-25T07:34:21.043Z,6.82
2018-01-25T07:35:21.038Z,6.87
2018-01-25T07:36:21.034Z,7.05
2018-01-25T07:37:21.031Z,7.07
2018-01-25T07:38:21.027Z,7.08
2018-01-25T07:39:21.023Z,7.14
2018-01-25T07:40:21.019Z,7.21
2018-01-25T07:41:21.016Z,7.26
2018-01-25T07:42:21.015Z,7.44
2018-01-25T07:43:21.014Z,7.74
2018-01-25T07:44:21.006Z,7.93
2018-01-25T07:45:21.002Z,8.17
2018-01-25T07:46:21.000Z,8.59
2018-01-25T07:47:20.996Z,8.96
2018-01-25T07:48:20.994Z,9.21
2018-01-25T07:49:20.996Z,9.69
2018-01-25T07:50:20.998Z,10.25
2018-01-25T07:51:20.991Z,10.31
2018-01-25T07:52:20.990Z,10.43
2018-01-25T07:53:20.990Z,10.46
2018-01-25T07:54:20.990Z,10.61
2018-01-25T07:55:20.989Z,10.79
2018-01-25T07:56:20.989Z,10.86
2018-01-25T07:57:20.989Z,10.92
2018-01-25T07:58:20.988Z,11.10
2018-01-25T07:59:20.988Z,11.16
2018-01-25T08:00:20.991Z,11.05
2018-01-25T08:01:20.991Z,10.97
2018-01-25T08:02:20.991Z,10.71
2018-01-25T08:03:20.993Z,10.71
2018-01-25T08:04:20.994Z,10.76
2018-01-25T08:05:20.995Z,10.87
2018-01-25T08:06:20.994Z,10.87
2018-01-25T08:07:20.995Z,10.97
2018-01-25T08:08:20.998Z,10.84
2018-01-25T08:09:20.998Z,10.87
2018-01-25T08:10:20.999Z,10.76
2018-01-25T08:11:21.000Z,10.64
2018-01-25T08:12:21.002Z,10.79
2018-01-25T08:13:21.003Z,10.84
2018-01-25T08:14:21.004Z,10.86
2018-01-25T08:15:21.006Z,10.75
2018-01-25T08:16:21.007Z,10.71
2018-01-25T08:17:21.009Z,10.57
2018-01-25T08:18:21.011Z,10.65
2018-01-25T08:19:21.011Z,10.62
2018-01-25T08:20:21.011Z,10.51
2018-01-25T08:21:21.013Z,10.43
2018-01-25T08:22:21.014Z,10.33
2018-01-25T08:23:21.016Z,10.21
2018-01-25T08:24:21.016Z,9.99
2018-01-25T08:25:21.017Z,9.73
2018-01-25T08:26:21.017Z,9.67
2018-01-25T08:27:21.017Z,9.58
2018-01-25T08:28:21.017Z,9.33
2018-01-25T08:29:21.090Z,9.24
2018-01-25T08:30:21.018Z,9.27
2018-01-25T08:31:21.017Z,9.26
2018-01-25T08:32:21.057Z,9.27
2018-01-25T08:33:21.017Z,9.34
2018-01-25T08:34:21.015Z,9.18
2018-01-25T08:35:21.016Z,9.29
2018-01-25T08:36:21.014Z,9.36
2018-01-25T08:37:21.281Z,9.40
2018-01-25T08:38:21.014Z,9.29
2018-01-25T08:39:21.013Z,9.42
2018-01-25T08:40:21.012Z,9.55
2018-01-25T08:41:21.013Z,9.90
2018-01-25T08:42:21.011Z,9.97
2018-01-25T08:43:21.012Z,10.34
2018-01-25T08:44:21.011Z,10.53
2018-01-25T08:45:21.012Z,10.65
2018-01-25T08:46:21.049Z,10.84
2018-01-25T08:47:21.013Z,11.30
2018-01-25T08:48:21.014Z,11.60
2018-01-25T08:49:21.017Z,11.59
2018-01-25T08:50:21.016Z,11.31
2018-01-25T08:51:21.016Z,11.22
2018-01-25T08:52:21.015Z,10.82
2018-01-25T08:53:21.018Z,10.71
2018-01-25T08:54:21.017Z,10.51
2018-01-25T08:55:21.018Z,10.34
2018-01-25T08:56:21.020Z,10.24
2018-01-25T08:57:21.020Z,10.18
2018-01-25T08:58:21.018Z,10.10
2018-01-25T08:59:21.020Z,9.97
2018-01-25T09:00:21.061Z,9.91
2018-01-25T09:01:21.020Z,9.92
2018-01-25T09:02:21.020Z,10.03
2018-01-25T09:03:21.019Z,10.06
2018-01-25T09:04:21.020Z,10.13
2018-01-25T09:05:21.020Z,10.28
2018-01-25T09:06:21.019Z,10.39
2018-01-25T09:07:21.018Z,10.67
2018-01-25T09:08:21.069Z,10.84
2018-01-25T09:09:21.020Z,10.94
2018-01-25T09:10:21.020Z,10.69
2018-01-25T09:11:21.019Z,10.69
2018-01-25T09:12:21.024Z,10.55
2018-01-25T09:13:21.021Z,10.48
2018-01-25T09:14:21.019Z,10.58
2018-01-25T09:15:21.023Z,10.68
2018-01-25T09:16:21.021Z,10.71
2018-01-25T09:17:21.022Z,10.86
2018-01-25T09:18:21.022Z,10.95
2018-01-25T09:19:21.022Z,11.00
2018-01-25T09:20:21.022Z,11.08
2018-01-25T09:21:21.023Z,10.98
2018-01-25T09:22:21.022Z,11.02
2018-01-25T09:23:21.024Z,10.97
2018-01-25T09:24:21.022Z,10.98
2018-01-25T09:25:21.023Z,10.90
2018-01-25T09:26:21.039Z,10.90
2018-01-25T09:27:21.024Z,10.86
2018-01-25T09:28:21.024Z,10.79
2018-01-25T09:29:21.024Z,10.68
2018-01-25T09:30:21.025Z,10.69
2018-01-25T09:31:21.026Z,10.71
2018-01-25T09:32:21.067Z,10.83
2018-01-25T09:33:21.026Z,10.94
2018-01-25T09:34:21.026Z,10.97
2018-01-25T09:35:21.026Z,11.10
2018-01-25T09:36:21.028Z,11.23
2018-01-25T09:37:21.027Z,11.30
2018-01-25T09:38:21.027Z,11.37
2018-01-25T09:39:21.028Z,11.53
2018-01-25T09:40:21.028Z,11.73
2018-01-25T09:41:21.028Z,11.93
2018-01-25T09:42:21.028Z,12.11
2018-01-25T09:43:21.038Z,12.14
2018-01-25T09:44:21.031Z,12.39
2018-01-25T09:45:21.032Z,12.37
2018-01-25T09:46:21.032Z,12.36
2018-01-25T09:47:21.202Z,12.33
2018-01-25T09:48:21.035Z,12.53
2018-01-25T09:49:21.037Z,12.54
2018-01-25T09:50:21.037Z,12.69
2018-01-25T09:51:21.040Z,12.68
2018-01-25T09:52:21.042Z,12.54
2018-01-25T09:53:21.044Z,12.65
2018-01-25T09:54:21.062Z,12.68
2018-01-25T09:55:21.047Z,12.93
2018-01-25T09:56:21.048Z,13.11
2018-01-25T09:57:21.050Z,13.27
2018-01-25T09:58:21.050Z,13.46
2018-01-25T09:59:21.053Z,13.85
2018-01-25T10:00:21.054Z,13.79
2018-01-25T10:01:21.058Z,13.80
2018-01-25T10:02:21.060Z,13.80
2018-01-25T10:03:21.060Z,13.80
2018-01-25T10:04:21.063Z,13.91
2018-01-25T10:05:21.065Z,13.97
2018-01-25T10:06:21.068Z,14.12
2018-01-25T10:07:21.077Z,14.16
2018-01-25T10:08:21.073Z,14.16
2018-01-25T10:09:21.075Z,14.18
2018-01-25T10:10:21.122Z,14.25
2018-01-25T10:11:21.079Z,14.18
2018-01-25T10:12:21.082Z,14.25
2018-01-25T10:13:21.086Z,14.30
2018-01-25T10:14:21.087Z,14.48
2018-01-25T10:15:21.093Z,14.52
2018-01-25T10:16:21.094Z,14.56
2018-01-25T10:17:21.098Z,14.55
2018-01-25T10:18:21.099Z,14.82
2018-01-25T10:19:21.317Z,14.82
2018-01-25T10:20:21.106Z,14.92
2018-01-25T10:21:21.109Z,15.15
2018-01-25T10:22:21.113Z,15.25
2018-01-25T10:23:21.116Z,15.23
2018-01-25T10:24:21.120Z,15.18
2018-01-25T10:25:21.124Z,15.12
2018-01-25T10:26:21.127Z,15.11
2018-01-25T10:27:21.132Z,15.29
2018-01-25T10:28:21.135Z,15.29
2018-01-25T10:29:21.138Z,15.65
2018-01-25T10:30:21.142Z,15.73
2018-01-25T10:31:21.147Z,15.96
2018-01-25T10:32:21.150Z,16.08
2018-01-25T10:33:21.155Z,15.81
2018-01-25T10:34:21.159Z,15.65
2018-01-25T10:35:21.165Z,15.57
2018-01-25T10:36:21.204Z,15.76
2018-01-25T10:37:21.175Z,15.96
2018-01-25T10:38:21.179Z,15.94
2018-01-25T10:39:21.184Z,16.12
2018-01-25T10:40:21.192Z,16.32
2018-01-25T10:41:21.193Z,16.17
2018-01-25T10:42:21.200Z,16.61
2018-01-25T10:43:21.205Z,16.61
2018-01-25T10:44:21.211Z,16.69
2018-01-25T10:45:21.216Z,16.77
2018-01-25T10:46:21.222Z,16.74
2018-01-25T10:47:21.227Z,16.79
2018-01-25T10:48:21.235Z,16.74
2018-01-25T10:49:21.242Z,16.64
2018-01-25T10:50:21.247Z,16.82
2018-01-25T10:51:21.252Z,16.73
2018-01-25T10:52:21.260Z,16.39
2018-01-25T10:53:21.268Z,16.16
2018-01-25T10:54:21.272Z,16.22
2018-01-25T10:55:21.279Z,16.18
2018-01-25T10:56:21.286Z,16.00
2018-01-25T10:57:21.298Z,15.87
2018-01-25T10:58:21.296Z,15.96
2018-01-25T10:59:21.302Z,16.32
2018-01-25T11:00:21.311Z,16.46
2018-01-25T11:01:21.316Z,16.49
2018-01-25T11:02:21.322Z,16.80
2018-01-25T11:03:21.330Z,16.82
2018-01-25T11:04:21.337Z,16.89
2018-01-25T11:05:21.344Z,16.69
2018-01-25T11:06:21.349Z,16.61
2018-01-25T11:07:21.355Z,16.55
2018-01-25T11:08:21.364Z,16.62
2018-01-25T11:09:21.371Z,16.64
2018-01-25T11:10:21.376Z,16.66
2018-01-25T11:11:21.385Z,16.59
2018-01-25T11:12:21.392Z,16.55
2018-01-25T11:13:21.399Z,16.31
2018-01-25T11:14:21.405Z,16.32
2018-01-25T11:15:21.413Z,16.37
2018-01-25T11:16:21.418Z,16.06
2018-01-25T11:17:21.427Z,15.85
2018-01-25T11:18:21.433Z,15.67
2018-01-25T11:19:21.439Z,15.65
2018-01-25T11:20:21.444Z,15.66
2018-01-25T11:21:21.451Z,15.67
2018-01-25T11:22:21.460Z,15.36
2018-01-25T11:23:21.501Z,15.52
2018-01-25T11:24:21.470Z,15.57
2018-01-25T11:25:21.484Z,15.70
2018-01-25T11:26:21.480Z,15.66
2018-01-25T11:27:21.485Z,15.81
2018-01-25T11:28:21.490Z,15.65
2018-01-25T11:29:21.496Z,15.69
2018-01-25T11:30:21.501Z,15.80
2018-01-25T11:31:21.506Z,15.76
2018-01-25T11:32:21.510Z,15.65
2018-01-25T11:33:21.517Z,15.17
2018-01-25T11:34:21.520Z,15.04
2018-01-25T11:35:21.526Z,15.05
2018-01-25T11:36:21.531Z,15.11
2018-01-25T11:37:21.535Z,15.17
2018-01-25T11:38:21.539Z,15.12
2018-01-25T11:39:21.545Z,15.15
2018-01-25T11:40:21.550Z,15.02
2018-01-25T11:41:21.555Z,15.05
2018-01-25T11:42:21.558Z,15.00
2018-01-25T11:43:21.563Z,15.07
2018-01-25T11:44:21.567Z,14.96
2018-01-25T11:45:21.575Z,14.99
2018-01-25T11:46:21.575Z,15.04
2018-01-25T11:47:21.581Z,15.04
2018-01-25T11:48:21.584Z,14.79
2018-01-25T11:49:21.590Z,14.68
2018-01-25T11:50:21.593Z,14.56
2018-01-25T11:51:21.598Z,14.33
2018-01-25T11:52:21.601Z,14.20
2018-01-25T11:53:21.604Z,14.22
2018-01-25T11:54:21.608Z,14.34
2018-01-25T11:55:21.611Z,14.30
2018-01-25T11:56:21.615Z,14.25
2018-01-25T11:57:21.619Z,14.34
2018-01-25T11:58:21.621Z,14.48
2018-01-25T11:59:21.626Z,14.53
2018-01-25T12:00:21.628Z,14.78
2018-01-25T12:01:21.637Z,14.94
2018-01-25T12:02:21.636Z,15.00
2018-01-25T12:03:21.639Z,15.17
2018-01-25T12:04:21.642Z,15.33
2018-01-25T12:05:21.646Z,15.41
2018-01-25T12:06:21.650Z,15.47
2018-01-25T12:07:21.654Z,15.63
2018-01-25T12:08:21.657Z,15.78
2018-01-25T12:09:21.664Z,15.78
2018-01-25T12:10:21.666Z,15.81
2018-01-25T12:11:21.671Z,15.84
2018-01-25T12:12:21.674Z,15.96
2018-01-25T12:13:21.679Z,15.99
2018-01-25T12:14:21.683Z,16.13
2018-01-25T12:15:21.686Z,16.32
2018-01-25T12:16:21.691Z,16.21
2018-01-25T12:17:21.695Z,16.05
2018-01-25T12:18:21.700Z,16.06
2018-01-25T12:19:21.703Z,15.88
2018-01-25T12:20:21.708Z,15.83
2018-01-25T12:21:21.713Z,15.88
2018-01-25T12:22:21.718Z,15.84
2018-01-25T12:23:21.722Z,15.92
2018-01-25T12:24:21.884Z,15.75
2018-01-25T12:25:21.732Z,15.85
2018-01-25T12:26:21.734Z,15.83
2018-01-25T12:27:21.744Z,15.76
2018-01-25T12:28:21.744Z,15.73
2018-01-25T12:29:21.750Z,15.76
2018-01-25T12:30:21.754Z,15.72
2018-01-25T12:31:21.758Z,15.72
2018-01-25T12:32:21.772Z,15.73
2018-01-25T12:33:21.768Z,15.67
2018-01-25T12:34:21.772Z,15.80
2018-01-25T12:35:21.777Z,15.75
2018-01-25T12:36:21.782Z,15.63
2018-01-25T12:37:21.784Z,15.47
2018-01-25T12:38:21.790Z,15.41
2018-01-25T12:39:21.793Z,15.32
2018-01-25T12:40:21.799Z,15.23
2018-01-25T12:41:21.803Z,15.18
2018-01-25T12:42:21.805Z,15.18
2018-01-25T12:43:21.808Z,15.18
2018-01-25T12:44:21.812Z,15.08
2018-01-25T12:45:21.816Z,15.15
2018-01-25T12:46:21.819Z,15.02
2018-01-25T12:47:21.823Z,14.97
2018-01-25T12:48:21.826Z,15.05
2018-01-25T12:49:21.831Z,15.02
2018-01-25T12:50:21.833Z,15.07
2018-01-25T12:51:21.838Z,15.05
2018-01-25T12:52:21.841Z,14.93
2018-01-25T12:53:21.846Z,14.90
2018-01-25T12:54:21.847Z,14.90
2018-01-25T12:55:21.850Z,14.79
2018-01-25T12:56:21.854Z,14.92
2018-01-25T12:57:21.859Z,14.90
2018-01-25T12:58:21.860Z,14.87
2018-01-25T12:59:21.863Z,14.86
2018-01-25T13:00:21.866Z,14.81
2018-01-25T13:01:21.871Z,14.74
2018-01-25T13:02:21.873Z,14.70
2018-01-25T13:03:21.877Z,14.68
2018-01-25T13:04:21.881Z,14.67
2018-01-25T13:05:21.884Z,14.53
2018-01-25T13:06:21.885Z,14.56
2018-01-25T13:07:21.888Z,14.56
2018-01-25T13:08:21.893Z,14.53